METAR Data
IDs: Format: Raw Decoded Include TAF

Data at: 2251 UTC 25 Oct 2021

PAPO 252027Z AUTO 07014KT 1SM -SN BR OVC014 M03/M04 A2914 RMK AO2 FZRANO PNO $
PAPO 252011Z AUTO 06015KT 3/4SM -SN BR OVC010 M02/M03 A2914 RMK AO2 FZRANO PNO $
PAPO 251956Z AUTO 06012KT 1/2SM SN FZFG BKN010 OVC016 M03/M04 A2915 RMK AO2 CIG 008V013 SLP868 T10281039 FZRANO PNO $
PAPO 251948Z AUTO 06013KT 1/2SM -SN FZFG OVC015 M03/M04 A2915 RMK AO2 FZRANO PNO $
PAPO 251935Z AUTO 07013KT 1SM -SN BR OVC017 M03/M04 A2915 RMK AO2 FZRANO PNO $
PAPO 251917Z AUTO 08012KT 1 1/2SM -SN BR BKN017 BKN022 OVC032 M03/M04 A2915 RMK AO2 FZRANO PNO $
PAPO 251908Z AUTO 08011KT 1 3/4SM -SN BR FEW016 SCT021 OVC033 M03/M04 A2915 RMK AO2 FZRANO PNO $
PAPO 251856Z AUTO 07013KT 6SM -SN BR FEW025 OVC034 M03/M04 A2915 RMK AO2 SNB43 SLP870 T10281044 FZRANO PNO $
PAPO 251805Z AUTO 08011KT 10SM BKN032 M02/M04 A2915 RMK AO2 FZRANO PNO $
PAPO 251756Z AUTO 09011KT 10SM BKN029 BKN036 OVC060 M02/M04 A2915 RMK AO2 SLP871 6//// T10221039 11017 21028 56003 FZRANO PNO $
PAPO 251754Z AUTO 09011KT 10SM BKN029 BKN036 OVC060 M02/M04 A2915 RMK AO2 FZRANO PNO $
PAPO 251604Z AUTO 10017KT 10SM BKN029 OVC090 M02/M04 A2916 RMK AO2 FZRANO PNO $
PAPO 251556Z AUTO 10016KT 10SM SCT029 OVC090 M03/M04 A2916 RMK AO2 SNE15 SLP874 T10281039 FZRANO PNO $
PAPO 251456Z AUTO 10017KT 9SM -SN SCT045 OVC075 M02/M03 A2917 RMK AO2 SNB17E29B50 SLPNO 6//// T10171033 56008 FZRANO PNO $
PAPO 251417Z AUTO 10017KT 10SM -SN SCT023 OVC075 M02/M03 A2917 RMK AO2 SNB17 FZRANO PNO $
PAPO 251356Z AUTO 10017KT 9SM OVC021 M02/M03 A2917 RMK AO2 SLPNO T10171033 FZRANO PNO $
PAPO 251329Z AUTO 09015KT 10SM SCT014 BKN019 OVC070 M02/M03 A2918 RMK AO2 FZRANO PNO $
PAPO 251256Z AUTO 09013KT 10SM FEW013 OVC070 M02/M03 A2918 RMK AO2 SLP880 T10171033 FZRANO PNO $
PAPO 251156Z AUTO 09013KT 10SM FEW010 BKN042 OVC070 M02/M03 A2919 RMK AO2 SLP884 6//// 7//// T10171033 11011 21022 58014 FZRANO PNO $
PAPO 251056Z AUTO 09012KT 10SM OVC055 M02/M03 A2921 RMK AO2 SLP889 T10221033 FZRANO PNO $
PAPO 250956Z AUTO 12015KT 10SM SCT065 M01/M02 A2922 RMK AO2 SLP893 T10111022 FZRANO PNO $
PAPO 250936Z AUTO 12015KT 10SM SCT013 M01/M02 A2922 RMK AO2 FZRANO PNO $
PAPO 250856Z AUTO 12015KT 10SM OVC011 M01/M02 A2923 RMK AO2 SLP897 6//// T10111022 410111033 57005 FZRANO PNO $
PAPO 250756Z AUTO 08010KT 10SM BKN013 OVC038 M02/M03 A2924 RMK AO2 SLP900 T10221028 FZRANO PNO $
PAPO 250705Z AUTO 09010KT 10SM SCT015 OVC034 M02/M03 A2924 RMK AO2 FZRANO PNO $
PAPO 250656Z AUTO 09010KT 10SM BKN013 BKN031 OVC038 M02/M03 A2925 RMK AO2 SLP902 T10171028 FZRANO PNO $
PAPO 250631Z AUTO 10012KT 10SM BKN011 OVC032 M02/M02 A2925 RMK AO2 FZRANO PNO $
PAPO 250606Z AUTO 09010KT 10SM BKN009 OVC026 M02/M03 A2925 RMK AO2 FZRANO PNO $
PAPO 250556Z AUTO 09009KT 9SM SCT009 BKN024 OVC029 M02/M03 A2926 RMK AO2 SNE51 SLP905 6//// T10221028 56017 FZRANO PNO $
PAPO 250523Z AUTO 09009KT 7SM -SN BKN021 OVC029 M03/M04 A2926 RMK AO2 FZRANO PNO $
PAPO 250503Z AUTO 08008KT 2 1/2SM -SN BR BKN023 OVC029 M03/M04 A2927 RMK AO2 FZRANO PNO $
PAPO 250456Z AUTO 08009KT 3SM -SN BR FEW022 OVC029 M03/M04 A2927 RMK AO2 SLP911 T10281039 FZRANO PNO $
PAPO 250356Z AUTO 07008KT 3SM -SN BR BKN022 OVC044 M03/M04 A2929 RMK AO2 SLP916 T10331044 FZRANO PNO $
PAPO 250312Z AUTO 08008KT 4SM -SN BR BKN023 OVC028 M03/M04 A2930 RMK AO2 FZRANO PNO $
PAPO 250256Z AUTO 08008KT 2SM -SN OVC022 A2930 RMK AO2 SLPNO 6//// 56013 FZRANO PNO $
PAPO 250243Z AUTO 08007KT 2SM -SN OVC022 A2930 RMK AO2 FZRANO PNO $
PAPO 250234Z AUTO 08007KT 3SM -SN OVC022 A2930 RMK AO2 FZRANO PNO $
PAPO 250156Z AUTO 08006KT 1 1/2SM -SN OVC020 A2931 RMK AO2 SLPNO FZRANO PNO $
PAPO 250130Z AUTO 09006KT 1 1/2SM -SN BR BKN024 OVC031 M03/M04 A2932 RMK AO2 FZRANO PNO $
PAPO 250117Z AUTO 09007KT 2SM -SN BR BKN026 OVC033 M03/M04 A2932 RMK AO2 VIS 2V2 1/2 FZRANO PNO $
PAPO 250056Z AUTO 08006KT 1 1/4SM -SN BR OVC024 M03/M04 A2933 RMK AO2 SLP930 T10281039 FZRANO PNO $
PAPO 250046Z AUTO 08006KT 1 1/4SM -SN BR BKN024 OVC028 M03/M04 A2933 RMK AO2 FZRANO PNO $
PAPO 242356Z AUTO 07006KT 2SM -SN BR SCT020 OVC028 M03/M04 A2934 RMK AO2 SLP935 6//// T10281044 11022 21028 56009 FZRANO PNO $
PAPO 242354Z AUTO 07006KT 2 1/2SM -SN BR SCT020 BKN025 OVC030 M03/M04 A2934 RMK AO2 FZRANO PNO $
PAPO 242339Z AUTO 07007KT 1 1/4SM -SN BR BKN020 OVC026 M03/M04 A2935 RMK AO2 FZRANO PNO $
PAPO 242332Z AUTO 08007KT 2SM -SN BR BKN020 OVC026 M03/M04 A2935 RMK AO2 FZRANO PNO $
PAPO 242320Z AUTO 07007KT 1 1/4SM -SN BR BKN020 OVC026 M03/M04 A2935 RMK AO2 FZRANO PNO $
PAPO 242309Z AUTO 08008KT 2SM -SN BR BKN020 OVC029 M03/M04 A2935 RMK AO2 VIS 1 3/4V4 FZRANO PNO $
PAPO 242256Z AUTO 08007KT 4SM -SN BR SCT022 BKN029 OVC036 M03/M04 A2936 RMK AO2 SLP940 T10281039 FZRANO PNO $
PAPO 242235Z AUTO 07007KT 6SM -SN BR SCT021 BKN028 OVC035 M03/M04 A2937 RMK AO2 FZRANO PNO $
PAPO 242218Z AUTO 07007KT 2SM -SN BR OVC019 M03/M04 A2937 RMK AO2 VIS 1 3/4V3 FZRANO PNO $
PAPO 242156Z AUTO 07009KT 6SM -SN BR OVC019 M03/M04 A2937 RMK AO2 SLP944 T10281044 FZRANO PNO $
PAPO 242137Z AUTO 07010KT 9SM -SN BKN019 OVC050 M03/M04 A2937 RMK AO2 FZRANO PNO $
PAPO 242113Z AUTO 07010KT 9SM -SN FEW016 SCT022 BKN050 M03/M05 A2938 RMK AO2 FZRANO PNO $
PAPO 242105Z AUTO 08010KT 6SM -SN BR FEW016 SCT022 BKN027 M03/M05 A2938 RMK AO2 FZRANO PNO $
PAPO 242056Z AUTO 07010KT 2SM -SN BR SCT015 BKN021 OVC027 M03/M05 A2938 RMK AO2 VIS 1V3 SLP948 6//// T10281050 58010 FZRANO PNO $
PAPO 242047Z AUTO 07010KT 1 3/4SM -SN BR SCT014 OVC025 M03/M05 A2938 RMK AO2 FZRANO PNO $
PAPO 241956Z AUTO 06013KT 7SM -SN FEW018 BKN028 OVC050 M03/M05 A2939 RMK AO2 SNB1858E22B47 SLP951 T10281050 FZRANO PNO $
PAPO 241856Z AUTO 06014KT 10SM FEW027 SCT037 OVC065 M02/M05 A2940 RMK AO2 SLP954 T10221050 FZRANO PNO $
PAPO 241839Z AUTO 06012KT 10SM SCT020 BKN036 OVC065 M03/M05 A2940 RMK AO2 FZRANO PNO $
PAPO 241756Z AUTO 06013KT 10SM BKN016 OVC028 M02/M05 A2941 RMK AO2 SLP958 6//// T10221050 11022 21028 58012 FZRANO PNO $
PAPO 241656Z AUTO 06012KT 10SM BKN018 BKN023 OVC031 M02/M05 A2943 RMK AO2 SLP964 T10221050 FZRANO PNO $
PAPO 241556Z AUTO 07010KT 10SM OVC018 M02/M05 A2944 RMK AO2 SNB27E37 SLP968 T10221050 FZRANO PNO $
PAPO 241456Z AUTO 06016KT 10SM OVC016 M02/M04 A2945 RMK AO2 SLP970 6//// T10221044 56006 FZRANO PNO $
PAPO 241404Z AUTO 06016KT 10SM BKN016 OVC023 M02/M04 A2945 RMK AO2 FZRANO PNO $
PAPO 241356Z AUTO 06017KT 10SM BKN014 OVC023 M02/M04 A2945 RMK AO2 SLP972 T10221044 FZRANO PNO $
PAPO 241311Z AUTO 05016KT 10SM BKN016 OVC027 M02/M04 A2945 RMK AO2 FZRANO PNO $
PAPO 241256Z AUTO 05016KT 10SM OVC014 M02/M04 A2945 RMK AO2 SLP972 T10221044 FZRANO PNO $
PAPO 241156Z AUTO 05014KT 10SM OVC014 M02/M04 A2946 RMK AO2 SLP976 6//// 7//// T10171039 11017 21022 53003 FZRANO PNO $
PAPO 241111Z AUTO 05015G21KT 10SM OVC014 M02/M04 A2945 RMK AO2 FZRANO PNO $
PAPO 241056Z AUTO 04017KT 10SM OVC016 M02/M04 A2945 RMK AO2 SLP973 T10171044 FZRANO PNO $